Terminal Aerodrome Forecast
Issued by NWS

Home | Current Version | Previous Version | Text Only | Print | Product List | Glossary On
Versions: 1 2 3 4 5 6 7 8 9 10 11 12 13 14 15 16 17
000
FTUS41 KBTV 281317 AAA
TAFMSS
TAF AMD
KMSS 281317Z 2813/2912 07010KT 5SM BR BKN005
      TEMPO 2814/2815 6SM BR SCT004
     FM281500 06009KT P6SM SCT250
     FM281900 05009KT P6SM SCT040 SCT100
     FM290000 05005KT P6SM SCT060 SCT150=

USA.gov is the U.S. government's official web portal to all federal, state and local government web resources and services.